createdAt,value
2019-01-21T00:00:38.681Z,-5.29
2019-01-21T00:05:34.859Z,-5.42
2019-01-21T00:10:30.757Z,-5.55
2019-01-21T00:15:26.774Z,-5.57
2019-01-21T00:20:22.682Z,-5.60
2019-01-21T00:25:18.579Z,-5.80
2019-01-21T00:30:14.506Z,-5.86
2019-01-21T00:35:10.519Z,-5.88
2019-01-21T00:40:09.724Z,-5.76
2019-01-21T00:45:05.834Z,-5.84
2019-01-21T00:50:01.982Z,-6.00
2019-01-21T00:54:58.637Z,-6.02
2019-01-21T00:59:54.639Z,-5.28
2019-01-21T01:04:50.554Z,-5.23
2019-01-21T01:09:46.462Z,-5.12
2019-01-21T01:14:42.364Z,-5.08
2019-01-21T01:19:39.079Z,-5.29
2019-01-21T01:24:35.088Z,-4.98
2019-01-21T01:29:31.039Z,-5.72
2019-01-21T01:34:27.092Z,-5.88
2019-01-21T01:39:23.017Z,-5.77
2019-01-21T01:44:18.935Z,-5.90
2019-01-21T01:49:17.730Z,-6.04
2019-01-21T01:54:13.736Z,-6.08
2019-01-21T01:59:09.717Z,-5.84
2019-01-21T02:04:05.722Z,-5.82
2019-01-21T02:09:01.930Z,-6.07
2019-01-21T02:13:57.834Z,-5.18
2019-01-21T02:18:57.268Z,-5.33
2019-01-21T02:23:55.874Z,-5.90
2019-01-21T02:29:07.425Z,-5.45
2019-01-21T02:34:18.955Z,-5.54
2019-01-21T02:39:24.955Z,-5.21
2019-01-21T02:44:57.940Z,-5.96
2019-01-21T02:50:12.651Z,-6.05
2019-01-21T02:55:30.714Z,-6.05
2019-01-21T03:01:08.432Z,-6.31
2019-01-21T03:06:25.917Z,-5.76
2019-01-21T03:11:40.938Z,-5.53
2019-01-21T03:17:06.662Z,-6.07
2019-01-21T03:22:32.769Z,-5.39
2019-01-21T03:27:38.374Z,-5.71
2019-01-21T03:32:58.745Z,-6.16
2019-01-21T03:38:08.079Z,-6.19
2019-01-21T03:43:10.754Z,-6.20
2019-01-21T03:48:28.751Z,-5.52
2019-01-21T03:53:40.284Z,-6.00
2019-01-21T03:58:46.327Z,-6.28
2019-01-21T04:03:48.778Z,-5.82
2019-01-21T04:08:53.931Z,-5.96
2019-01-21T04:14:05.946Z,-5.56
2019-01-21T04:19:12.060Z,-5.88
2019-01-21T04:24:28.588Z,-5.48
2019-01-21T04:29:48.156Z,-6.08
2019-01-21T04:35:14.739Z,-6.30
2019-01-21T04:40:14.461Z,-6.34
2019-01-21T04:45:16.915Z,-6.30
2019-01-21T04:50:37.624Z,-5.88
2019-01-21T04:56:00.057Z,-6.26
2019-01-21T05:01:26.016Z,-6.38
2019-01-21T05:06:35.098Z,-6.47
2019-01-21T05:11:57.844Z,-6.42
2019-01-21T05:17:17.549Z,-6.37
2019-01-21T05:22:20.358Z,-6.29
2019-01-21T05:27:31.862Z,-6.38
2019-01-21T05:32:53.340Z,-6.44
2019-01-21T05:38:09.707Z,-6.22
2019-01-21T05:43:12.443Z,-6.18
2019-01-21T05:48:30.406Z,-6.14
2019-01-21T05:53:41.978Z,-6.04
2019-01-21T05:58:50.802Z,-5.93
2019-01-21T06:04:05.697Z,-5.50
2019-01-21T06:09:17.414Z,-5.63
2019-01-21T06:14:40.098Z,-5.54
2019-01-21T06:20:01.224Z,-5.20
2019-01-21T06:25:25.553Z,-4.80
2019-01-21T06:30:28.364Z,-4.46
2019-01-21T06:35:37.333Z,-4.32
2019-01-21T06:40:58.193Z,-4.40
2019-01-21T06:46:09.439Z,-4.16
2019-01-21T06:51:24.455Z,-4.20
2019-01-21T06:56:51.185Z,-4.08
2019-01-21T07:02:03.212Z,-4.06
2019-01-21T07:07:11.799Z,-3.98
2019-01-21T07:12:14.532Z,-3.91
2019-01-21T07:17:20.469Z,-4.06
2019-01-21T07:22:28.798Z,-4.06
2019-01-21T07:27:56.254Z,-4.25
2019-01-21T07:33:16.644Z,-4.25
2019-01-21T07:38:16.022Z,-4.07
2019-01-21T07:43:35.616Z,-4.21
2019-01-21T07:48:51.990Z,-4.41
2019-01-21T07:53:51.720Z,-4.14
2019-01-21T07:59:00.589Z,-4.11
2019-01-21T08:04:09.195Z,-4.13
2019-01-21T08:09:14.454Z,-4.00
2019-01-21T08:14:16.937Z,-3.63
2019-01-21T08:19:33.995Z,-3.61
2019-01-21T08:24:53.667Z,-3.51
2019-01-21T08:29:59.195Z,-3.37
2019-01-21T08:35:17.289Z,-3.64
2019-01-21T08:40:25.989Z,-3.36
2019-01-21T08:45:42.299Z,-3.06
2019-01-21T08:50:44.826Z,-3.24
2019-01-21T08:55:47.423Z,-3.32
2019-01-21T09:00:50.189Z,-3.17
2019-01-21T09:05:49.966Z,-2.98
2019-01-21T09:11:04.934Z,-2.89
2019-01-21T09:16:16.527Z,-2.75
2019-01-21T09:21:28.338Z,-2.67
2019-01-21T09:26:39.683Z,-2.84
2019-01-21T09:31:54.741Z,-2.60
2019-01-21T09:36:57.393Z,-2.52
2019-01-21T09:41:59.946Z,-2.18
2019-01-21T09:46:55.689Z,-2.13
2019-01-21T09:51:52.293Z,-2.11
2019-01-21T09:56:48.221Z,-2.13
2019-01-21T10:01:44.344Z,-2.03
2019-01-21T10:06:43.180Z,-1.81
2019-01-21T10:12:06.007Z,-1.87
2019-01-21T10:17:29.486Z,-1.76
2019-01-21T10:22:50.639Z,-1.76
2019-01-21T10:27:56.414Z,-1.59
2019-01-21T10:33:05.247Z,-1.32
2019-01-21T10:38:28.098Z,-1.30
2019-01-21T10:43:44.641Z,-1.20
2019-01-21T10:48:50.666Z,-1.15
2019-01-21T10:53:50.392Z,-0.92
2019-01-21T10:59:10.683Z,-1.12
2019-01-21T11:04:22.538Z,-1.30
2019-01-21T11:09:26.653Z,-0.93
2019-01-21T11:14:32.228Z,-0.73
2019-01-21T11:19:56.757Z,-0.73
2019-01-21T11:25:11.541Z,-0.47
2019-01-21T11:30:22.853Z,-0.24
2019-01-21T11:35:57.838Z,-0.15
2019-01-21T11:41:06.720Z,-0.19
2019-01-21T11:46:12.072Z,0.08
2019-01-21T11:51:23.821Z,0.13
2019-01-21T11:56:26.514Z,0.20
2019-01-21T12:01:26.232Z,-0.04
2019-01-21T12:06:35.073Z,0.01
2019-01-21T12:11:56.427Z,0.25
2019-01-21T12:17:05.124Z,0.42
2019-01-21T12:22:10.621Z,0.49
2019-01-21T12:27:19.710Z,0.61
2019-01-21T12:32:43.737Z,0.58
2019-01-21T12:38:03.122Z,0.70
2019-01-21T12:43:05.838Z,0.94
2019-01-21T12:48:32.383Z,1.00
2019-01-21T12:53:41.090Z,1.02
2019-01-21T12:58:41.033Z,1.10
2019-01-21T13:03:43.616Z,1.09
2019-01-21T13:09:09.229Z,0.97
2019-01-21T13:14:11.761Z,1.04
2019-01-21T13:19:28.218Z,1.09
2019-01-21T13:25:13.677Z,1.01
2019-01-21T13:30:28.653Z,1.18
2019-01-21T13:35:55.242Z,1.21
2019-01-21T13:41:10.346Z,1.33
2019-01-21T13:46:30.912Z,1.22
2019-01-21T13:51:42.902Z,1.18
2019-01-21T13:56:53.471Z,1.18
2019-01-21T14:01:56.359Z,1.18
2019-01-21T14:07:12.669Z,1.44
2019-01-21T14:12:12.393Z,1.36
2019-01-21T14:17:33.481Z,1.18
2019-01-21T14:23:00.520Z,1.12
2019-01-21T14:28:09.270Z,1.01
2019-01-21T14:33:21.134Z,1.02
2019-01-21T14:38:23.887Z,1.03
2019-01-21T14:43:29.318Z,1.02
2019-01-21T14:49:05.372Z,1.04
2019-01-21T14:54:08.214Z,0.91
2019-01-21T14:59:19.872Z,0.65
2019-01-21T15:04:28.586Z,0.71
2019-01-21T15:09:36.737Z,0.81
2019-01-21T15:15:12.711Z,0.56
2019-01-21T15:20:21.126Z,0.22
2019-01-21T15:25:43.457Z,0.40
2019-01-21T15:31:22.031Z,0.23
2019-01-21T15:36:41.441Z,-0.10
2019-01-21T15:42:01.795Z,-0.45
2019-01-21T15:47:22.400Z,-0.06
2019-01-21T15:52:28.307Z,-0.54
2019-01-21T15:57:31.156Z,-0.88
2019-01-21T16:02:34.617Z,-0.85
2019-01-21T16:07:34.541Z,-0.73
2019-01-21T16:12:49.067Z,-0.98
2019-01-21T16:17:54.858Z,-1.26
2019-01-21T16:23:09.824Z,-1.40
2019-01-21T16:28:46.357Z,-1.48
2019-01-21T16:33:55.506Z,-1.53
2019-01-21T16:38:55.199Z,-1.70
2019-01-21T16:43:52.838Z,-1.83
2019-01-21T16:48:53.808Z,-1.98
2019-01-21T16:53:50.798Z,-1.93
2019-01-21T16:58:47.697Z,-1.89
2019-01-21T17:03:44.902Z,-2.30
2019-01-21T17:08:40.901Z,-2.30
2019-01-21T17:13:37.903Z,-2.36
2019-01-21T17:18:36.222Z,-2.49
2019-01-21T17:23:32.257Z,-2.49
2019-01-21T17:28:28.171Z,-2.57
2019-01-21T17:33:24.974Z,-2.73
2019-01-21T17:38:20.854Z,-2.83
2019-01-21T17:43:16.873Z,-2.81
2019-01-21T17:48:15.381Z,-2.93
2019-01-21T17:53:11.507Z,-3.04
2019-01-21T17:58:16.846Z,-3.18
2019-01-21T18:03:15.916Z,-3.27
2019-01-21T18:08:16.409Z,-3.26
2019-01-21T18:13:15.882Z,-3.32
2019-01-21T18:18:12.643Z,-3.29
2019-01-21T18:23:08.869Z,-3.35
2019-01-21T18:28:05.872Z,-3.33
2019-01-21T18:33:02.115Z,-3.37
2019-01-21T18:37:58.059Z,-3.48
2019-01-21T18:42:54.056Z,-3.51
2019-01-21T18:47:49.976Z,-3.47
2019-01-21T18:52:46.265Z,-3.53
2019-01-21T18:57:42.170Z,-3.63
2019-01-21T19:02:38.056Z,-3.74
2019-01-21T19:07:33.980Z,-3.87
2019-01-21T19:12:29.869Z,-3.78
2019-01-21T19:17:25.777Z,-3.87
2019-01-21T19:22:21.670Z,-3.98
2019-01-21T19:27:17.566Z,-3.94
2019-01-21T19:32:13.458Z,-4.01
2019-01-21T19:37:09.365Z,-3.97
2019-01-21T19:42:05.261Z,-4.01
2019-01-21T19:47:01.253Z,-4.14
2019-01-21T19:52:00.480Z,-4.12
2019-01-21T19:56:54.965Z,-4.10
2019-01-21T20:01:50.954Z,-4.11
2019-01-21T20:06:46.897Z,-3.46
2019-01-21T20:11:42.785Z,-4.06
2019-01-21T20:16:38.674Z,-4.18
2019-01-21T20:21:34.566Z,-4.05
2019-01-21T20:26:30.457Z,-4.18
2019-01-21T20:31:26.351Z,-4.14
2019-01-21T20:36:22.261Z,-4.17
2019-01-21T20:41:18.295Z,-4.13
2019-01-21T20:46:14.227Z,-4.32
2019-01-21T20:51:10.192Z,-4.35
2019-01-21T20:56:06.233Z,-4.35
2019-01-21T21:01:02.231Z,-4.42
2019-01-21T21:05:58.181Z,-4.54
2019-01-21T21:10:54.150Z,-4.53
2019-01-21T21:15:50.066Z,-4.30
2019-01-21T21:20:45.975Z,-4.32
2019-01-21T21:25:41.978Z,-4.45
2019-01-21T21:30:38.732Z,-4.58
2019-01-21T21:35:35.039Z,-4.63
2019-01-21T21:40:30.954Z,-4.71
2019-01-21T21:45:27.918Z,-4.80
2019-01-21T21:50:26.346Z,-4.83
2019-01-21T21:55:22.245Z,-4.82
2019-01-21T22:00:21.169Z,-4.94
2019-01-21T22:05:17.813Z,-4.92
2019-01-21T22:10:19.662Z,-5.02
2019-01-21T22:15:16.745Z,-5.16
2019-01-21T22:20:15.643Z,-5.12
2019-01-21T22:25:11.538Z,-5.15
2019-01-21T22:30:11.254Z,-5.08
2019-01-21T22:35:07.278Z,-5.16
2019-01-21T22:40:06.986Z,-5.22
2019-01-21T22:45:05.386Z,-5.28
2019-01-21T22:50:01.405Z,-5.41
2019-01-21T22:54:57.730Z,-5.45
2019-01-21T22:59:53.651Z,-5.41
2019-01-21T23:04:49.579Z,-5.40
2019-01-21T23:09:45.461Z,-5.34
2019-01-21T23:14:41.471Z,-5.30
2019-01-21T23:19:38.099Z,-5.18
2019-01-21T23:24:34.054Z,-5.01
2019-01-21T23:29:29.947Z,-5.02
2019-01-21T23:34:25.889Z,-4.81
2019-01-21T23:39:21.800Z,-4.83
2019-01-21T23:44:17.718Z,-5.02
2019-01-21T23:49:27.039Z,-5.08
2019-01-21T23:54:23.090Z,-5.12
2019-01-21T23:59:18.983Z,-5.16
